createdAt,value
2023-03-06T00:01:18.186Z,5.13
2023-03-06T00:04:03.685Z,5.14
2023-03-06T00:06:49.182Z,5.11
2023-03-06T00:09:34.672Z,5.09
2023-03-06T00:12:20.061Z,5.04
2023-03-06T00:15:06.138Z,4.98
2023-03-06T00:17:52.622Z,4.94
2023-03-06T00:20:40.860Z,4.91
2023-03-06T00:23:27.755Z,4.87
2023-03-06T00:26:13.248Z,4.84
2023-03-06T00:29:00.542Z,4.82
2023-03-06T00:31:47.990Z,4.81
2023-03-06T00:34:33.505Z,4.80
2023-03-06T00:37:19.900Z,4.79
2023-03-06T00:40:07.648Z,4.78
2023-03-06T00:42:52.891Z,4.76
2023-03-06T00:45:38.846Z,4.76
2023-03-06T00:48:27.221Z,4.78
2023-03-06T00:51:14.016Z,4.79
2023-03-06T00:53:59.289Z,4.79
2023-03-06T00:56:44.657Z,4.81
2023-03-06T00:59:30.028Z,4.84
2023-03-06T01:02:15.359Z,4.84
2023-03-06T01:05:00.577Z,4.86
2023-03-06T01:07:45.904Z,4.89
2023-03-06T01:10:31.290Z,4.87
2023-03-06T01:13:17.080Z,4.86
2023-03-06T01:16:11.111Z,4.89
2023-03-06T01:18:56.829Z,4.90
2023-03-06T01:21:42.407Z,4.86
2023-03-06T01:24:28.674Z,4.86
2023-03-06T01:27:15.591Z,4.88
2023-03-06T01:30:02.563Z,4.85
2023-03-06T01:32:48.395Z,4.86
2023-03-06T01:35:33.809Z,4.89
2023-03-06T01:38:19.218Z,4.83
2023-03-06T01:41:05.495Z,4.74
2023-03-06T01:43:50.886Z,4.67
2023-03-06T01:46:43.733Z,4.63
2023-03-06T01:49:36.833Z,4.60
2023-03-06T01:52:25.916Z,4.61
2023-03-06T01:55:21.755Z,4.62
2023-03-06T01:58:11.639Z,4.64
2023-03-06T02:00:57.217Z,4.65
2023-03-06T02:03:43.096Z,4.67
2023-03-06T02:06:29.207Z,4.68
2023-03-06T02:09:15.144Z,4.73
2023-03-06T02:12:02.431Z,4.74
2023-03-06T02:14:48.643Z,4.74
2023-03-06T02:17:35.700Z,4.77
2023-03-06T02:20:27.692Z,4.78
2023-03-06T02:23:17.432Z,4.80
2023-03-06T02:26:04.254Z,4.82
2023-03-06T02:28:49.841Z,4.84
2023-03-06T02:31:35.800Z,4.84
2023-03-06T02:34:21.310Z,4.85
2023-03-06T02:37:10.974Z,4.86
2023-03-06T02:40:08.237Z,4.86
2023-03-06T02:42:58.573Z,4.86
2023-03-06T02:45:48.490Z,4.81
2023-03-06T02:48:34.409Z,4.82
2023-03-06T02:51:19.928Z,4.81
2023-03-06T02:54:05.218Z,4.81
2023-03-06T02:56:50.592Z,4.80
2023-03-06T02:59:36.043Z,4.80
2023-03-06T03:02:23.563Z,4.78
2023-03-06T03:05:09.260Z,4.76
2023-03-06T03:07:59.956Z,4.77
2023-03-06T03:10:47.233Z,4.76
2023-03-06T03:13:33.074Z,4.78
2023-03-06T03:16:19.806Z,4.77
2023-03-06T03:19:04.980Z,4.76
2023-03-06T03:21:51.950Z,4.76
2023-03-06T03:24:42.539Z,4.75
2023-03-06T03:27:28.654Z,4.74
2023-03-06T03:30:15.156Z,4.75
2023-03-06T03:33:01.029Z,4.74
2023-03-06T03:35:46.491Z,4.73
2023-03-06T03:38:33.061Z,4.74
2023-03-06T03:41:18.613Z,4.76
2023-03-06T03:44:04.936Z,4.76
2023-03-06T03:46:51.487Z,4.76
2023-03-06T03:49:40.337Z,4.74
2023-03-06T03:52:26.003Z,4.73
2023-03-06T03:55:11.542Z,4.72
2023-03-06T03:57:59.264Z,4.70
2023-03-06T04:00:45.797Z,4.72
2023-03-06T04:03:33.754Z,4.69
2023-03-06T04:06:20.215Z,4.69
2023-03-06T04:09:06.404Z,4.68
2023-03-06T04:11:54.464Z,4.64
2023-03-06T04:14:39.786Z,4.61
2023-03-06T04:17:25.830Z,4.57
2023-03-06T04:20:13.079Z,4.56
2023-03-06T04:22:59.301Z,4.52
2023-03-06T04:25:45.130Z,4.51
2023-03-06T04:28:32.118Z,4.51
2023-03-06T04:31:18.568Z,4.47
2023-03-06T04:34:03.916Z,4.39
2023-03-06T04:36:49.911Z,4.31
2023-03-06T04:39:36.236Z,4.24
2023-03-06T04:42:21.631Z,4.16
2023-03-06T04:45:07.754Z,4.08
2023-03-06T04:47:53.957Z,4.04
2023-03-06T04:50:39.373Z,4.00
2023-03-06T04:53:24.608Z,3.96
2023-03-06T04:56:10.060Z,3.93
2023-03-06T04:58:55.734Z,3.91
2023-03-06T05:01:41.010Z,3.93
2023-03-06T05:04:26.455Z,3.94
2023-03-06T05:07:11.782Z,3.89
2023-03-06T05:09:57.101Z,3.89
2023-03-06T05:12:43.309Z,3.90
2023-03-06T05:15:29.005Z,3.92
2023-03-06T05:18:14.696Z,3.95
2023-03-06T05:21:00.649Z,3.97
2023-03-06T05:23:45.970Z,3.99
2023-03-06T05:26:31.244Z,4.02
2023-03-06T05:29:16.505Z,4.03
2023-03-06T05:32:01.999Z,4.05
2023-03-06T05:34:48.840Z,4.04
2023-03-06T05:37:34.384Z,4.00
2023-03-06T05:40:20.406Z,3.93
2023-03-06T05:43:06.850Z,3.92
2023-03-06T05:46:00.628Z,3.87
2023-03-06T05:48:46.942Z,3.82
2023-03-06T05:51:32.941Z,3.79
2023-03-06T05:54:18.299Z,3.74
2023-03-06T05:57:05.092Z,3.75
2023-03-06T05:59:51.436Z,3.74
2023-03-06T06:02:36.749Z,3.74
2023-03-06T06:05:22.276Z,3.76
2023-03-06T06:08:07.531Z,3.77
2023-03-06T06:10:53.601Z,3.75
2023-03-06T06:13:39.975Z,3.78
2023-03-06T06:16:25.606Z,3.82
2023-03-06T06:19:15.606Z,3.82
2023-03-06T06:22:02.764Z,3.84
2023-03-06T06:24:48.228Z,3.90
2023-03-06T06:27:33.575Z,3.95
2023-03-06T06:30:19.144Z,3.97
2023-03-06T06:33:04.811Z,3.98
2023-03-06T06:35:50.886Z,3.93
2023-03-06T06:38:36.514Z,3.90
2023-03-06T06:44:27.469Z,3.81
2023-03-06T06:47:28.137Z,3.80
2023-03-06T06:50:14.197Z,3.76
2023-03-06T06:52:59.530Z,3.75
2023-03-06T06:55:44.857Z,3.77
2023-03-06T06:58:30.303Z,3.77
2023-03-06T07:01:15.647Z,3.75
2023-03-06T07:04:00.852Z,3.75
2023-03-06T07:06:46.924Z,3.74
2023-03-06T07:09:32.281Z,3.76
2023-03-06T07:12:17.656Z,3.83
2023-03-06T07:15:04.357Z,3.90
2023-03-06T07:17:50.355Z,3.91
2023-03-06T07:20:36.487Z,3.93
2023-03-06T07:23:22.589Z,3.93
2023-03-06T07:26:08.236Z,3.92
2023-03-06T07:28:54.588Z,3.91
2023-03-06T07:31:40.179Z,3.90
2023-03-06T07:34:25.638Z,3.90
2023-03-06T07:37:11.608Z,3.90
2023-03-06T07:39:56.795Z,3.93
2023-03-06T07:42:42.324Z,3.94
2023-03-06T07:45:31.031Z,3.95
2023-03-06T07:48:16.527Z,3.94
2023-03-06T07:51:04.679Z,3.96
2023-03-06T07:53:50.657Z,3.99
2023-03-06T07:56:36.873Z,4.02
2023-03-06T07:59:22.195Z,4.06
2023-03-06T08:02:07.558Z,4.10
2023-03-06T08:04:56.984Z,4.11
2023-03-06T08:07:45.886Z,4.13
2023-03-06T08:10:31.530Z,4.12
2023-03-06T08:13:17.185Z,4.14
2023-03-06T08:16:03.631Z,4.17
2023-03-06T08:18:48.908Z,4.18
2023-03-06T08:21:34.600Z,4.22
2023-03-06T08:24:20.266Z,4.27
2023-03-06T08:27:05.946Z,4.31
2023-03-06T08:29:51.625Z,4.35
2023-03-06T08:32:37.689Z,4.38
2023-03-06T08:35:23.493Z,4.46
2023-03-06T08:38:08.894Z,4.48
2023-03-06T08:40:54.205Z,4.54
2023-03-06T08:43:40.422Z,4.61
2023-03-06T08:46:28.146Z,4.64
2023-03-06T08:49:13.967Z,4.70
2023-03-06T08:51:59.671Z,4.78
2023-03-06T08:54:44.927Z,4.83
2023-03-06T08:57:30.823Z,4.88
2023-03-06T09:00:16.859Z,4.93
2023-03-06T09:03:02.365Z,4.92
2023-03-06T09:05:47.820Z,4.92
2023-03-06T09:08:33.129Z,5.00
2023-03-06T09:11:19.650Z,5.10
2023-03-06T09:14:06.250Z,5.16
2023-03-06T09:16:51.590Z,5.25
2023-03-06T09:19:37.800Z,5.35
2023-03-06T09:22:23.201Z,5.38
2023-03-06T09:25:11.121Z,5.45
2023-03-06T09:28:10.526Z,5.58
2023-03-06T09:30:56.980Z,5.69
2023-03-06T09:33:43.115Z,5.78
2023-03-06T09:36:28.338Z,5.83
2023-03-06T09:39:13.687Z,5.81
2023-03-06T09:41:59.191Z,5.91
2023-03-06T09:44:50.583Z,6.00
2023-03-06T09:47:49.994Z,6.10
2023-03-06T09:51:01.418Z,6.04
2023-03-06T09:54:02.871Z,5.94
2023-03-06T09:56:50.675Z,5.80
2023-03-06T09:59:36.379Z,5.71
2023-03-06T10:02:38.693Z,5.75
2023-03-06T10:05:26.326Z,5.77
2023-03-06T10:08:53.503Z,5.88
2023-03-06T10:11:38.774Z,5.98
2023-03-06T10:15:05.861Z,6.06
2023-03-06T10:17:51.593Z,6.10
2023-03-06T10:21:07.421Z,6.08
2023-03-06T10:24:19.260Z,6.02
2023-03-06T10:27:24.033Z,6.05
2023-03-06T10:30:28.291Z,6.04
2023-03-06T10:33:32.448Z,6.08
2023-03-06T10:36:20.297Z,6.12
2023-03-06T10:39:14.259Z,6.14
2023-03-06T10:41:59.936Z,6.13
2023-03-06T10:44:45.305Z,6.13
2023-03-06T10:47:35.190Z,6.13
2023-03-06T10:50:30.676Z,6.20
2023-03-06T10:53:29.136Z,6.15
2023-03-06T10:56:29.902Z,6.19
2023-03-06T10:59:18.125Z,6.20
2023-03-06T11:02:27.442Z,6.21
2023-03-06T11:05:20.853Z,6.26
2023-03-06T11:08:22.065Z,6.37
2023-03-06T11:11:11.144Z,6.44
2023-03-06T11:13:59.050Z,6.44
2023-03-06T11:16:53.718Z,6.45
2023-03-06T11:19:39.165Z,6.50
2023-03-06T11:22:24.624Z,6.48
2023-03-06T11:25:15.250Z,6.43
2023-03-06T11:28:06.985Z,6.38
2023-03-06T11:31:01.021Z,6.42
2023-03-06T11:33:55.960Z,6.56
2023-03-06T11:36:54.765Z,6.59
2023-03-06T11:39:57.057Z,6.64
2023-03-06T11:42:48.704Z,6.69
2023-03-06T11:45:45.139Z,6.77
2023-03-06T11:48:56.510Z,7.00
2023-03-06T11:51:48.155Z,7.18
2023-03-06T11:54:34.014Z,7.25
2023-03-06T11:57:24.869Z,7.33
2023-03-06T12:00:26.133Z,7.39
2023-03-06T12:03:14.834Z,7.36
2023-03-06T12:06:00.129Z,7.39
2023-03-06T12:08:51.012Z,7.53
2023-03-06T12:12:18.247Z,7.56
2023-03-06T12:15:22.681Z,7.48
2023-03-06T12:18:31.263Z,7.48
2023-03-06T12:21:32.614Z,7.52
2023-03-06T12:24:49.563Z,7.47
2023-03-06T12:28:08.388Z,7.46
2023-03-06T12:31:32.105Z,7.44
2023-03-06T12:34:41.221Z,7.46
2023-03-06T12:37:48.197Z,7.41
2023-03-06T12:40:56.626Z,7.30
2023-03-06T12:44:00.680Z,7.25
2023-03-06T12:46:59.343Z,7.29
2023-03-06T12:49:51.848Z,7.17
2023-03-06T12:52:37.501Z,7.14
2023-03-06T12:55:25.973Z,7.14
2023-03-06T12:58:32.621Z,7.21
2023-03-06T13:01:39.812Z,7.10
2023-03-06T13:04:47.305Z,6.71
2023-03-06T13:07:48.328Z,5.94
2023-03-06T13:10:38.632Z,5.77
2023-03-06T13:13:44.397Z,5.63
2023-03-06T13:16:34.628Z,5.46
2023-03-06T13:19:27.012Z,5.43
2023-03-06T13:22:43.441Z,5.35
2023-03-06T13:25:29.029Z,5.17
2023-03-06T13:28:24.312Z,5.12
2023-03-06T13:31:21.356Z,5.01
2023-03-06T13:34:35.986Z,5.05
2023-03-06T13:37:23.467Z,5.05
2023-03-06T13:40:09.950Z,5.09
2023-03-06T13:43:07.560Z,5.07
2023-03-06T13:45:52.897Z,5.08
2023-03-06T13:48:44.867Z,5.04
2023-03-06T13:51:47.660Z,5.00
2023-03-06T13:54:43.851Z,5.08
2023-03-06T13:57:47.788Z,5.15
2023-03-06T14:01:17.983Z,5.16
2023-03-06T14:04:27.352Z,5.22
2023-03-06T14:07:33.646Z,5.26
2023-03-06T14:10:23.510Z,5.29
2023-03-06T14:13:32.332Z,5.25
2023-03-06T14:16:40.498Z,5.28
2023-03-06T14:19:38.660Z,5.13
2023-03-06T14:22:24.611Z,4.96
2023-03-06T14:25:22.862Z,5.02
2023-03-06T14:28:22.857Z,5.11
2023-03-06T14:31:16.227Z,5.25
2023-03-06T14:34:24.197Z,5.38
2023-03-06T14:37:21.336Z,5.43
2023-03-06T14:40:11.436Z,5.47
2023-03-06T14:43:19.632Z,5.56
2023-03-06T14:46:08.801Z,5.51
2023-03-06T14:48:54.399Z,5.56
2023-03-06T14:51:45.878Z,5.57
2023-03-06T14:54:34.420Z,5.51
2023-03-06T14:57:23.175Z,5.49
2023-03-06T15:00:17.614Z,5.49
2023-03-06T15:03:09.435Z,5.54
2023-03-06T15:05:55.970Z,5.48
2023-03-06T15:08:46.030Z,5.44
2023-03-06T15:11:50.974Z,5.46
2023-03-06T15:14:43.051Z,5.49
2023-03-06T15:17:39.122Z,5.52
2023-03-06T15:20:53.530Z,5.51
2023-03-06T15:23:41.783Z,5.54
2023-03-06T15:26:37.134Z,5.50
2023-03-06T15:29:24.362Z,5.45
2023-03-06T15:32:42.502Z,5.37
2023-03-06T15:35:32.002Z,5.27
2023-03-06T15:38:25.098Z,5.21
2023-03-06T15:41:35.663Z,5.20
2023-03-06T15:44:21.013Z,5.20
2023-03-06T15:47:09.418Z,5.21
2023-03-06T15:49:55.408Z,5.17
2023-03-06T15:52:40.915Z,5.21
2023-03-06T15:55:26.616Z,5.18
2023-03-06T15:58:17.545Z,5.16
2023-03-06T16:01:03.913Z,5.16
2023-03-06T16:03:49.617Z,5.18
2023-03-06T16:06:35.062Z,5.15
2023-03-06T16:09:20.347Z,5.10
2023-03-06T16:12:06.554Z,5.07
2023-03-06T16:14:51.977Z,5.01
2023-03-06T16:17:37.340Z,4.99
2023-03-06T16:20:25.666Z,4.96
2023-03-06T16:23:11.211Z,4.98
2023-03-06T16:25:56.693Z,5.00
2023-03-06T16:28:42.569Z,4.96
2023-03-06T16:31:28.277Z,4.96
2023-03-06T16:34:14.309Z,4.92
2023-03-06T16:36:59.950Z,4.92
2023-03-06T16:39:45.291Z,4.93
2023-03-06T16:42:30.804Z,4.93
2023-03-06T16:45:17.827Z,4.95
2023-03-06T16:48:03.796Z,4.96
2023-03-06T16:50:50.449Z,4.99
2023-03-06T16:53:35.638Z,5.00
2023-03-06T16:56:20.950Z,4.97
2023-03-06T16:59:06.348Z,4.93
2023-03-06T17:01:51.979Z,4.90
2023-03-06T17:04:37.955Z,4.85
2023-03-06T17:07:23.337Z,4.78
2023-03-06T17:10:12.188Z,4.78
2023-03-06T17:12:57.892Z,4.78
2023-03-06T17:15:56.538Z,4.77
2023-03-06T17:18:43.274Z,4.76
2023-03-06T17:21:30.347Z,4.74
2023-03-06T17:24:15.645Z,4.67
2023-03-06T17:27:00.947Z,4.62
2023-03-06T17:29:46.585Z,4.57
2023-03-06T17:32:32.973Z,4.34
2023-03-06T17:35:18.590Z,4.28
2023-03-06T17:38:04.383Z,4.18
2023-03-06T17:40:49.824Z,4.08
2023-03-06T17:43:35.569Z,4.12
2023-03-06T17:46:21.275Z,4.15
2023-03-06T17:49:06.918Z,4.13
2023-03-06T17:51:53.717Z,4.10
2023-03-06T17:54:39.089Z,4.10
2023-03-06T17:57:24.417Z,4.08
2023-03-06T18:00:11.005Z,4.00
2023-03-06T18:02:59.759Z,3.93
2023-03-06T18:05:45.290Z,3.88
2023-03-06T18:08:31.104Z,3.85
2023-03-06T18:11:16.795Z,3.84
2023-03-06T18:14:04.381Z,3.81
2023-03-06T18:16:50.804Z,3.80
2023-03-06T18:19:36.305Z,3.80
2023-03-06T18:22:21.669Z,3.80
2023-03-06T18:25:07.402Z,3.79
2023-03-06T18:27:52.859Z,3.78
2023-03-06T18:30:43.471Z,3.77
2023-03-06T18:33:29.035Z,3.76
2023-03-06T18:36:14.762Z,3.76
2023-03-06T18:39:03.833Z,3.76
2023-03-06T18:41:49.523Z,3.72
2023-03-06T18:44:34.831Z,3.73
2023-03-06T18:47:19.983Z,3.74
2023-03-06T18:50:06.533Z,3.68
2023-03-06T18:52:52.415Z,3.63
2023-03-06T18:55:38.651Z,3.64
2023-03-06T18:58:23.841Z,3.60
2023-03-06T19:01:09.458Z,3.50
2023-03-06T19:03:55.151Z,3.48
2023-03-06T19:06:41.061Z,3.42
2023-03-06T19:09:26.614Z,3.39
2023-03-06T19:12:11.897Z,3.36
2023-03-06T19:14:58.180Z,3.29
2023-03-06T19:17:43.507Z,3.25
2023-03-06T19:20:28.820Z,3.23
2023-03-06T19:23:14.291Z,3.19
2023-03-06T19:26:00.530Z,3.09
2023-03-06T19:28:46.750Z,3.07
2023-03-06T19:31:32.402Z,3.02
2023-03-06T19:34:17.851Z,2.94
2023-03-06T19:37:03.395Z,2.89
2023-03-06T19:39:48.612Z,2.87
2023-03-06T19:42:33.983Z,2.82
2023-03-06T19:45:19.566Z,2.80
2023-03-06T19:48:06.056Z,2.81
2023-03-06T19:50:51.632Z,2.75
2023-03-06T19:53:37.883Z,2.70
2023-03-06T19:56:29.340Z,2.72
2023-03-06T19:59:14.819Z,2.71
2023-03-06T20:02:00.333Z,2.71
2023-03-06T20:04:46.731Z,2.74
2023-03-06T20:07:32.437Z,2.70
2023-03-06T20:10:18.295Z,2.71
2023-03-06T20:13:04.009Z,2.71
2023-03-06T20:15:49.969Z,2.72
2023-03-06T20:18:35.995Z,2.74
2023-03-06T20:21:24.271Z,2.70
2023-03-06T20:24:17.979Z,2.71
2023-03-06T20:27:03.534Z,2.68
2023-03-06T20:29:49.137Z,2.70
2023-03-06T20:32:34.850Z,2.69
2023-03-06T20:35:20.661Z,2.66
2023-03-06T20:38:06.117Z,2.68
2023-03-06T20:40:54.780Z,2.68
2023-03-06T20:43:40.486Z,2.67
2023-03-06T20:46:26.378Z,2.68
2023-03-06T20:49:13.367Z,2.66
2023-03-06T20:51:58.990Z,2.65
2023-03-06T20:54:45.461Z,2.65
2023-03-06T20:57:30.883Z,2.68
2023-03-06T21:00:17.692Z,2.69
2023-03-06T21:03:03.446Z,2.69
2023-03-06T21:05:49.108Z,2.69
2023-03-06T21:08:34.460Z,2.69
2023-03-06T21:11:19.887Z,2.66
2023-03-06T21:14:05.568Z,2.66
2023-03-06T21:16:51.190Z,2.66
2023-03-06T21:19:37.163Z,2.68
2023-03-06T21:22:23.131Z,2.68
2023-03-06T21:25:08.559Z,2.70
2023-03-06T21:27:54.303Z,2.69
2023-03-06T21:30:39.994Z,2.71
2023-03-06T21:33:25.646Z,2.66
2023-03-06T21:36:11.652Z,2.67
2023-03-06T21:38:57.293Z,2.66
2023-03-06T21:41:42.815Z,2.63
2023-03-06T21:44:28.028Z,2.62
2023-03-06T21:47:13.472Z,2.59
2023-03-06T21:49:58.726Z,2.59
2023-03-06T21:52:44.176Z,2.57
2023-03-06T21:55:29.632Z,2.51
2023-03-06T21:58:15.001Z,2.49
2023-03-06T22:01:00.683Z,2.46
2023-03-06T22:03:46.561Z,2.42
2023-03-06T22:06:32.095Z,2.44
2023-03-06T22:09:19.146Z,2.43
2023-03-06T22:12:04.734Z,2.40
2023-03-06T22:14:50.178Z,2.36
2023-03-06T22:17:35.718Z,2.37
2023-03-06T22:20:21.258Z,2.35
2023-03-06T22:23:06.912Z,2.34
2023-03-06T22:25:52.383Z,2.32
2023-03-06T22:28:38.890Z,2.30
2023-03-06T22:31:26.812Z,2.30
2023-03-06T22:34:12.367Z,2.29
2023-03-06T22:36:57.904Z,2.30
2023-03-06T22:39:43.254Z,2.27
2023-03-06T22:42:28.816Z,2.25
2023-03-06T22:45:14.560Z,2.23
2023-03-06T22:48:10.577Z,2.21
2023-03-06T22:50:56.566Z,2.18
2023-03-06T22:53:42.729Z,2.18
2023-03-06T22:56:28.613Z,2.17
2023-03-06T22:59:14.351Z,2.15
2023-03-06T23:01:59.840Z,2.13
2023-03-06T23:04:53.316Z,2.10
2023-03-06T23:07:39.023Z,2.11
2023-03-06T23:10:24.742Z,2.12
2023-03-06T23:13:29.172Z,2.09
2023-03-06T23:16:33.822Z,2.10
2023-03-06T23:19:38.138Z,2.08
2023-03-06T23:22:42.701Z,2.08
2023-03-06T23:25:46.979Z,2.07
2023-03-06T23:28:32.974Z,2.06
2023-03-06T23:31:22.989Z,2.03
2023-03-06T23:34:11.610Z,2.03
2023-03-06T23:36:57.237Z,2.03
2023-03-06T23:39:43.004Z,2.00
2023-03-06T23:42:28.299Z,2.01
2023-03-06T23:45:13.703Z,2.02
2023-03-06T23:47:59.248Z,1.99
2023-03-06T23:50:45.092Z,2.00
2023-03-06T23:53:30.845Z,1.98
2023-03-06T23:56:16.717Z,1.97
2023-03-06T23:59:02.201Z,1.94
